createdAt,value
2022-11-29T00:01:03.673Z,7.70
2022-11-29T00:03:31.935Z,7.70
2022-11-29T00:06:05.343Z,7.70
2022-11-29T00:08:34.867Z,7.70
2022-11-29T00:11:06.109Z,7.70
2022-11-29T00:13:33.230Z,7.70
2022-11-29T00:16:04.866Z,7.70
2022-11-29T00:18:32.815Z,7.70
2022-11-29T00:21:01.377Z,7.70
2022-11-29T00:23:29.451Z,7.70
2022-11-29T00:26:03.672Z,7.70
2022-11-29T00:28:31.716Z,7.70
2022-11-29T00:30:59.679Z,7.70
2022-11-29T00:33:28.154Z,7.70
2022-11-29T00:35:56.341Z,7.70
2022-11-29T00:38:24.221Z,7.70
2022-11-29T00:40:53.161Z,7.80
2022-11-29T00:43:23.938Z,7.70
2022-11-29T00:45:51.830Z,7.70
2022-11-29T00:48:19.804Z,7.70
2022-11-29T00:50:47.894Z,7.60
2022-11-29T00:53:16.457Z,7.60
2022-11-29T00:55:45.082Z,7.60
2022-11-29T00:58:13.171Z,7.60
2022-11-29T01:00:43.134Z,7.60
2022-11-29T01:03:11.077Z,7.50
2022-11-29T01:05:39.287Z,7.50
2022-11-29T01:08:07.382Z,7.50
2022-11-29T01:10:35.561Z,7.50
2022-11-29T01:13:03.563Z,7.60
2022-11-29T01:15:31.623Z,7.50
2022-11-29T01:18:01.151Z,7.50
2022-11-29T01:20:29.212Z,7.50
2022-11-29T01:22:57.277Z,7.50
2022-11-29T01:25:25.566Z,7.50
2022-11-29T01:27:53.570Z,7.50
2022-11-29T01:30:21.564Z,7.50
2022-11-29T01:32:49.594Z,7.50
2022-11-29T01:35:19.103Z,7.50
2022-11-29T01:37:47.154Z,7.50
2022-11-29T01:40:15.360Z,7.50
2022-11-29T01:42:43.498Z,7.50
2022-11-29T01:45:20.370Z,7.40
2022-11-29T01:47:48.990Z,7.40
2022-11-29T01:50:16.978Z,7.40
2022-11-29T01:52:47.000Z,7.40
2022-11-29T01:55:15.652Z,7.40
2022-11-29T01:57:43.903Z,7.40
2022-11-29T02:00:13.228Z,7.40
2022-11-29T02:02:43.370Z,7.40
2022-11-29T02:05:13.105Z,7.40
2022-11-29T02:07:41.582Z,7.50
2022-11-29T02:10:11.545Z,7.50
2022-11-29T02:12:50.876Z,7.50
2022-11-29T02:15:22.719Z,7.60
2022-11-29T02:17:57.429Z,7.60
2022-11-29T02:20:40.106Z,7.70
2022-11-29T02:23:17.075Z,7.70
2022-11-29T02:25:54.425Z,7.70
2022-11-29T02:28:39.503Z,7.80
2022-11-29T02:31:31.527Z,7.80
2022-11-29T02:34:05.271Z,7.80
2022-11-29T02:36:46.608Z,7.80
2022-11-29T02:39:22.666Z,7.80
2022-11-29T02:41:55.882Z,7.90
2022-11-29T02:44:33.929Z,7.80
2022-11-29T02:47:07.906Z,7.90
2022-11-29T02:49:49.474Z,7.80
2022-11-29T02:52:19.716Z,7.80
2022-11-29T02:54:49.698Z,7.80
2022-11-29T02:57:22.133Z,7.80
2022-11-29T02:59:54.372Z,7.80
2022-11-29T03:02:26.381Z,7.80
2022-11-29T03:04:59.426Z,7.80
2022-11-29T03:07:32.367Z,7.80
2022-11-29T03:10:03.826Z,7.80
2022-11-29T03:12:35.054Z,7.80
2022-11-29T03:15:09.233Z,7.80
2022-11-29T03:17:42.591Z,7.80
2022-11-29T03:20:27.299Z,7.80
2022-11-29T03:23:03.395Z,7.80
2022-11-29T03:25:34.270Z,7.80
2022-11-29T03:28:04.447Z,7.80
2022-11-29T03:30:33.573Z,7.80
2022-11-29T03:33:05.313Z,7.80
2022-11-29T03:35:38.876Z,7.80
2022-11-29T03:38:12.104Z,7.70
2022-11-29T03:40:43.244Z,7.70
2022-11-29T03:43:14.495Z,7.70
2022-11-29T03:45:44.907Z,7.70
2022-11-29T03:48:15.431Z,7.70
2022-11-29T03:50:47.231Z,7.70
2022-11-29T03:53:16.733Z,7.70
2022-11-29T03:55:49.906Z,7.70
2022-11-29T03:58:22.622Z,7.70
2022-11-29T04:01:01.537Z,7.70
2022-11-29T04:03:56.736Z,7.70
2022-11-29T04:06:35.102Z,7.70
2022-11-29T04:09:25.001Z,7.70
2022-11-29T04:12:07.228Z,7.70
2022-11-29T04:14:45.077Z,7.70
2022-11-29T04:17:35.147Z,7.70
2022-11-29T04:20:22.159Z,7.80
2022-11-29T04:23:11.348Z,7.70
2022-11-29T04:25:49.361Z,7.70
2022-11-29T04:28:26.011Z,7.70
2022-11-29T04:30:59.013Z,7.80
2022-11-29T04:33:48.540Z,7.70
2022-11-29T04:36:35.102Z,7.70
2022-11-29T04:39:17.887Z,7.70
2022-11-29T04:41:58.294Z,7.70
2022-11-29T04:44:44.519Z,7.70
2022-11-29T04:47:30.878Z,7.60
2022-11-29T04:50:04.957Z,7.60
2022-11-29T04:52:55.488Z,7.60
2022-11-29T04:55:31.004Z,7.60
2022-11-29T04:58:03.241Z,7.60
2022-11-29T05:00:35.415Z,7.60
2022-11-29T05:03:06.691Z,7.60
2022-11-29T05:05:37.626Z,7.60
2022-11-29T05:08:17.773Z,7.60
2022-11-29T05:10:48.670Z,7.60
2022-11-29T05:13:22.048Z,7.50
2022-11-29T05:16:10.618Z,7.60
2022-11-29T05:18:53.722Z,7.50
2022-11-29T05:21:26.635Z,7.50
2022-11-29T05:23:58.117Z,7.50
2022-11-29T05:26:30.237Z,7.50
2022-11-29T05:29:01.083Z,7.40
2022-11-29T05:31:38.360Z,7.40
2022-11-29T05:34:33.233Z,7.40
2022-11-29T05:37:08.409Z,7.40
2022-11-29T05:39:40.538Z,7.40
2022-11-29T05:42:15.143Z,7.30
2022-11-29T05:44:46.553Z,7.40
2022-11-29T05:47:18.980Z,7.40
2022-11-29T05:49:51.183Z,7.30
2022-11-29T05:52:25.418Z,7.30
2022-11-29T05:55:08.850Z,7.20
2022-11-29T05:57:41.372Z,7.20
2022-11-29T06:00:13.194Z,7.10
2022-11-29T06:02:47.735Z,7.10
2022-11-29T06:05:18.471Z,7.10
2022-11-29T06:07:48.831Z,7.00
2022-11-29T06:10:19.008Z,7.00
2022-11-29T06:12:50.146Z,7.00
2022-11-29T06:15:30.079Z,6.90
2022-11-29T06:18:11.268Z,7.10
2022-11-29T06:20:44.668Z,7.10
2022-11-29T06:23:29.059Z,7.10
2022-11-29T06:26:10.138Z,7.10
2022-11-29T06:28:46.153Z,7.20
2022-11-29T06:31:17.583Z,7.30
2022-11-29T06:33:50.007Z,7.30
2022-11-29T06:36:20.802Z,7.30
2022-11-29T06:38:48.885Z,7.30
2022-11-29T06:41:20.032Z,7.30
2022-11-29T06:43:48.910Z,7.30
2022-11-29T06:46:21.437Z,7.30
2022-11-29T06:48:52.105Z,7.40
2022-11-29T06:51:23.347Z,7.40
2022-11-29T06:53:54.686Z,7.40
2022-11-29T06:56:25.383Z,7.40
2022-11-29T06:58:58.300Z,7.40
2022-11-29T07:01:34.421Z,7.40
2022-11-29T07:04:20.716Z,7.30
2022-11-29T07:06:49.264Z,7.40
2022-11-29T07:09:18.914Z,7.40
2022-11-29T07:11:48.009Z,7.30
2022-11-29T07:14:16.916Z,7.40
2022-11-29T07:16:54.480Z,7.40
2022-11-29T07:19:29.609Z,7.30
2022-11-29T07:22:02.396Z,7.40
2022-11-29T07:24:35.527Z,7.40
2022-11-29T07:27:08.570Z,7.40
2022-11-29T07:29:39.670Z,7.40
2022-11-29T07:32:13.343Z,7.40
2022-11-29T07:34:45.734Z,7.40
2022-11-29T07:37:21.590Z,7.40
2022-11-29T07:39:55.065Z,7.40
2022-11-29T07:42:27.080Z,7.40
2022-11-29T07:45:06.393Z,7.40
2022-11-29T07:47:36.395Z,7.40
2022-11-29T07:50:04.621Z,7.50
2022-11-29T07:52:32.641Z,7.50
2022-11-29T07:55:00.630Z,7.50
2022-11-29T07:57:28.447Z,7.50
2022-11-29T07:59:56.513Z,7.50
2022-11-29T08:02:28.152Z,7.50
2022-11-29T08:04:57.647Z,7.60
2022-11-29T08:07:26.164Z,7.60
2022-11-29T08:09:54.500Z,7.70
2022-11-29T08:12:22.385Z,7.70
2022-11-29T08:14:50.577Z,7.70
2022-11-29T08:17:19.126Z,7.80
2022-11-29T08:19:47.240Z,7.80
2022-11-29T08:22:16.978Z,7.80
2022-11-29T08:24:45.886Z,7.80
2022-11-29T08:27:14.278Z,7.90
2022-11-29T08:29:42.394Z,7.90
2022-11-29T08:32:10.569Z,8.00
2022-11-29T08:34:39.197Z,8.00
2022-11-29T08:37:07.284Z,8.00
2022-11-29T08:39:37.373Z,8.10
2022-11-29T08:42:06.132Z,8.10
2022-11-29T08:44:37.463Z,8.00
2022-11-29T08:47:23.107Z,8.10
2022-11-29T08:50:03.321Z,8.10
2022-11-29T08:52:50.106Z,8.10
2022-11-29T08:55:20.581Z,8.10
2022-11-29T08:57:49.100Z,8.20
2022-11-29T09:00:18.159Z,8.20
2022-11-29T09:02:46.519Z,8.30
2022-11-29T09:05:15.270Z,8.30
2022-11-29T09:07:44.288Z,8.30
2022-11-29T09:10:12.523Z,8.30
2022-11-29T09:12:44.293Z,8.30
2022-11-29T09:15:13.051Z,8.30
2022-11-29T09:17:41.429Z,8.30
2022-11-29T09:20:10.340Z,8.30
2022-11-29T09:22:39.270Z,8.40
2022-11-29T09:25:08.385Z,8.40
2022-11-29T09:27:36.567Z,8.40
2022-11-29T09:30:06.888Z,8.40
2022-11-29T09:32:35.461Z,8.50
2022-11-29T09:35:04.175Z,8.60
2022-11-29T09:37:33.126Z,8.60
2022-11-29T09:40:01.446Z,8.60
2022-11-29T09:42:36.162Z,8.70
2022-11-29T09:45:06.926Z,8.60
2022-11-29T09:47:52.126Z,8.60
2022-11-29T09:50:26.902Z,8.70
2022-11-29T09:53:00.395Z,8.60
2022-11-29T09:55:39.473Z,8.60
2022-11-29T09:58:11.253Z,8.50
2022-11-29T10:00:43.630Z,8.70
2022-11-29T10:03:17.111Z,8.70
2022-11-29T10:05:47.602Z,8.70
2022-11-29T10:08:17.215Z,8.70
2022-11-29T10:10:47.490Z,8.80
2022-11-29T10:13:18.183Z,8.80
2022-11-29T10:15:48.503Z,8.80
2022-11-29T10:18:23.326Z,8.80
2022-11-29T10:20:52.632Z,8.80
2022-11-29T10:23:23.493Z,8.70
2022-11-29T10:25:53.417Z,8.80
2022-11-29T10:28:22.711Z,8.90
2022-11-29T10:30:53.649Z,9.00
2022-11-29T10:33:26.630Z,8.90
2022-11-29T10:35:57.468Z,8.80
2022-11-29T10:38:31.106Z,8.80
2022-11-29T10:41:03.416Z,8.80
2022-11-29T10:43:38.466Z,8.90
2022-11-29T10:46:08.286Z,8.80
2022-11-29T10:48:38.397Z,8.90
2022-11-29T10:51:13.938Z,9.00
2022-11-29T10:53:42.283Z,9.00
2022-11-29T10:56:16.200Z,9.00
2022-11-29T10:58:55.491Z,9.10
2022-11-29T11:01:24.388Z,9.10
2022-11-29T11:03:54.513Z,9.10
2022-11-29T11:06:23.390Z,9.10
2022-11-29T11:08:54.255Z,9.10
2022-11-29T11:11:28.709Z,9.10
2022-11-29T11:16:51.041Z,9.00
2022-11-29T11:19:38.543Z,8.90
2022-11-29T11:22:09.037Z,8.90
2022-11-29T11:24:39.686Z,8.90
2022-11-29T11:27:09.740Z,8.90
2022-11-29T11:29:41.252Z,8.90
2022-11-29T11:32:16.643Z,8.90
2022-11-29T11:34:51.726Z,8.90
2022-11-29T11:37:23.085Z,9.00
2022-11-29T11:39:51.830Z,9.00
2022-11-29T11:42:40.596Z,9.00
2022-11-29T11:45:23.879Z,8.90
2022-11-29T11:47:53.247Z,8.90
2022-11-29T11:50:27.845Z,8.80
2022-11-29T11:52:57.815Z,8.80
2022-11-29T11:55:36.723Z,8.90
2022-11-29T11:58:10.380Z,8.90
2022-11-29T12:01:02.870Z,9.00
2022-11-29T12:03:34.573Z,9.10
2022-11-29T12:06:08.334Z,9.10
2022-11-29T12:08:37.990Z,9.10
2022-11-29T12:11:07.787Z,9.00
2022-11-29T12:13:40.966Z,9.00
2022-11-29T12:16:11.100Z,9.00
2022-11-29T12:18:41.858Z,9.00
2022-11-29T12:21:13.053Z,9.00
2022-11-29T12:23:46.441Z,9.00
2022-11-29T12:26:41.164Z,9.10
2022-11-29T12:29:05.035Z,9.20
2022-11-29T12:31:42.831Z,9.30
2022-11-29T12:34:22.546Z,9.30
2022-11-29T12:36:55.705Z,9.30
2022-11-29T12:39:32.941Z,9.30
2022-11-29T12:42:04.714Z,9.40
2022-11-29T12:44:39.476Z,9.40
2022-11-29T12:47:35.130Z,9.40
2022-11-29T12:50:05.466Z,9.40
2022-11-29T12:52:38.483Z,9.40
2022-11-29T12:55:11.479Z,9.40
2022-11-29T12:57:43.399Z,9.50
2022-11-29T13:00:13.386Z,9.50
2022-11-29T13:02:51.949Z,9.60
2022-11-29T13:05:24.867Z,9.60
2022-11-29T13:07:59.822Z,9.40
2022-11-29T13:10:39.365Z,9.50
2022-11-29T13:13:14.758Z,9.40
2022-11-29T13:15:44.642Z,9.40
2022-11-29T13:18:15.882Z,9.40
2022-11-29T13:20:46.948Z,9.40
2022-11-29T13:23:52.893Z,9.40
2022-11-29T13:26:16.033Z,9.50
2022-11-29T13:28:46.730Z,9.50
2022-11-29T13:31:16.769Z,9.50
2022-11-29T13:33:49.989Z,9.50
2022-11-29T13:36:22.037Z,9.50
2022-11-29T13:38:56.662Z,9.50
2022-11-29T13:41:29.792Z,9.50
2022-11-29T13:44:00.058Z,9.60
2022-11-29T13:46:31.802Z,9.60
2022-11-29T13:49:00.025Z,9.70
2022-11-29T13:51:30.421Z,9.70
2022-11-29T13:53:59.394Z,9.70
2022-11-29T13:56:33.396Z,9.70
2022-11-29T13:59:02.261Z,9.70
2022-11-29T14:01:34.124Z,9.70
2022-11-29T14:04:04.897Z,9.70
2022-11-29T14:06:36.120Z,9.70
2022-11-29T14:09:20.015Z,9.70
2022-11-29T14:11:51.719Z,9.70
2022-11-29T14:14:23.723Z,9.70
2022-11-29T14:16:56.250Z,9.70
2022-11-29T14:19:32.796Z,9.80
2022-11-29T14:22:31.640Z,9.80
2022-11-29T14:25:16.630Z,9.70
2022-11-29T14:27:59.853Z,9.80
2022-11-29T14:30:41.630Z,9.70
2022-11-29T14:33:19.007Z,9.80
2022-11-29T14:35:50.022Z,9.80
2022-11-29T14:38:29.217Z,9.80
2022-11-29T14:41:01.584Z,9.80
2022-11-29T14:43:33.609Z,9.80
2022-11-29T14:46:09.543Z,9.80
2022-11-29T14:48:38.580Z,9.80
2022-11-29T14:51:10.567Z,9.80
2022-11-29T14:53:39.513Z,9.80
2022-11-29T14:56:26.812Z,9.80
2022-11-29T14:59:11.641Z,9.90
2022-11-29T15:01:46.465Z,9.90
2022-11-29T15:04:16.940Z,9.80
2022-11-29T15:06:52.846Z,9.80
2022-11-29T15:09:24.543Z,9.80
2022-11-29T15:11:57.755Z,9.80
2022-11-29T15:14:35.100Z,9.90
2022-11-29T15:17:15.244Z,9.80
2022-11-29T15:20:01.346Z,9.90
2022-11-29T15:22:35.471Z,9.90
2022-11-29T15:25:08.851Z,9.80
2022-11-29T15:35:31.098Z,9.90
2022-11-29T15:37:59.434Z,9.80
2022-11-29T15:40:34.677Z,9.80
2022-11-29T15:43:11.557Z,9.90
2022-11-29T15:45:40.806Z,9.90
2022-11-29T15:48:16.011Z,9.90
2022-11-29T15:50:50.006Z,9.90
2022-11-29T15:53:20.649Z,9.90
2022-11-29T15:55:50.129Z,9.90
2022-11-29T15:58:18.776Z,9.90
2022-11-29T16:00:50.122Z,9.90
2022-11-29T16:03:21.581Z,9.90
2022-11-29T16:05:54.316Z,9.90
2022-11-29T16:08:23.425Z,9.80
2022-11-29T16:10:53.568Z,9.90
2022-11-29T16:13:32.346Z,9.90
2022-11-29T16:16:06.098Z,9.90
2022-11-29T16:18:39.117Z,9.90
2022-11-29T16:21:18.782Z,9.80
2022-11-29T16:23:47.897Z,9.80
2022-11-29T16:26:19.190Z,9.80
2022-11-29T16:31:25.907Z,9.70
2022-11-29T16:33:54.455Z,9.70
2022-11-29T16:36:25.556Z,9.60
2022-11-29T16:38:55.848Z,9.60
2022-11-29T16:41:32.962Z,9.50
2022-11-29T16:44:03.634Z,9.50
2022-11-29T16:46:36.768Z,9.50
2022-11-29T16:49:26.376Z,9.40
2022-11-29T16:51:56.333Z,9.40
2022-11-29T16:54:26.001Z,9.40
2022-11-29T16:56:54.910Z,9.40
2022-11-29T16:59:27.531Z,9.40
2022-11-29T17:01:58.460Z,9.40
2022-11-29T17:04:26.970Z,9.40
2022-11-29T17:06:58.053Z,9.40
2022-11-29T17:09:28.519Z,9.40
2022-11-29T17:12:00.186Z,9.50
2022-11-29T17:14:29.680Z,9.60
2022-11-29T17:17:01.156Z,9.70
2022-11-29T17:19:30.802Z,9.80
2022-11-29T17:22:01.602Z,9.80
2022-11-29T17:24:30.956Z,9.80
2022-11-29T17:27:00.381Z,9.90
2022-11-29T17:29:30.001Z,9.80
2022-11-29T17:31:59.157Z,9.80
2022-11-29T17:34:29.128Z,9.80
2022-11-29T17:36:58.680Z,9.80
2022-11-29T17:39:38.943Z,9.80
2022-11-29T17:42:07.503Z,9.80
2022-11-29T17:44:36.371Z,9.70
2022-11-29T17:47:05.458Z,9.70
2022-11-29T17:49:34.683Z,9.60
2022-11-29T17:52:06.746Z,9.50
